sensor_id;sensor_type;location;lat;lon;timestamp;temperature;humidity
18291;DHT22;9271;48.590;8.866;2022-09-09T00:01:03;17.10;96.90
18291;DHT22;9271;48.590;8.866;2022-09-09T00:03:35;17.30;96.70
18291;DHT22;9271;48.590;8.866;2022-09-09T00:06:08;17.40;96.20
18291;DHT22;9271;48.590;8.866;2022-09-09T00:08:44;17.50;96.10
18291;DHT22;9271;48.590;8.866;2022-09-09T00:11:16;17.40;96.40
18291;DHT22;9271;48.590;8.866;2022-09-09T00:13:50;17.40;96.10
18291;DHT22;9271;48.590;8.866;2022-09-09T00:16:22;17.40;96.20
18291;DHT22;9271;48.590;8.866;2022-09-09T00:18:56;17.40;96.60
18291;DHT22;9271;48.590;8.866;2022-09-09T00:21:26;17.30;96.60
18291;DHT22;9271;48.590;8.866;2022-09-09T00:23:58;17.40;96.40
18291;DHT22;9271;48.590;8.866;2022-09-09T00:26:30;17.30;96.60
18291;DHT22;9271;48.590;8.866;2022-09-09T00:29:03;17.20;96.70
18291;DHT22;9271;48.590;8.866;2022-09-09T00:31:32;17.40;96.30
18291;DHT22;9271;48.590;8.866;2022-09-09T00:34:05;17.40;96.20
18291;DHT22;9271;48.590;8.866;2022-09-09T00:36:35;17.50;96.30
18291;DHT22;9271;48.590;8.866;2022-09-09T00:39:03;17.40;95.70
18291;DHT22;9271;48.590;8.866;2022-09-09T00:41:42;17.40;96.30
18291;DHT22;9271;48.590;8.866;2022-09-09T00:44:21;17.40;96.40
18291;DHT22;9271;48.590;8.866;2022-09-09T00:46:59;17.30;96.10
18291;DHT22;9271;48.590;8.866;2022-09-09T00:49:40;17.40;95.90
18291;DHT22;9271;48.590;8.866;2022-09-09T00:52:17;17.50;95.50
18291;DHT22;9271;48.590;8.866;2022-09-09T00:54:52;17.50;95.30
18291;DHT22;9271;48.590;8.866;2022-09-09T00:57:26;17.50;94.90
18291;DHT22;9271;48.590;8.866;2022-09-09T01:00:15;16.60;97.30
18291;DHT22;9271;48.590;8.866;2022-09-09T01:02:53;16.10;98.70
18291;DHT22;9271;48.590;8.866;2022-09-09T01:05:29;16.30;98.20
18291;DHT22;9271;48.590;8.866;2022-09-09T01:07:58;16.40;98.10
18291;DHT22;9271;48.590;8.866;2022-09-09T01:10:33;16.50;98.50
18291;DHT22;9271;48.590;8.866;2022-09-09T01:13:05;16.50;98.40
18291;DHT22;9271;48.590;8.866;2022-09-09T01:15:40;16.40;98.60
18291;DHT22;9271;48.590;8.866;2022-09-09T01:18:13;16.40;98.70
18291;DHT22;9271;48.590;8.866;2022-09-09T01:20:47;16.40;98.90
18291;DHT22;9271;48.590;8.866;2022-09-09T01:23:32;16.40;99.00
18291;DHT22;9271;48.590;8.866;2022-09-09T01:26:12;16.30;99.20
18291;DHT22;9271;48.590;8.866;2022-09-09T01:28:40;16.20;99.40
18291;DHT22;9271;48.590;8.866;2022-09-09T01:31:11;16.30;98.70
18291;DHT22;9271;48.590;8.866;2022-09-09T01:33:40;16.20;98.90
18291;DHT22;9271;48.590;8.866;2022-09-09T01:36:10;16.00;99.40
18291;DHT22;9271;48.590;8.866;2022-09-09T01:38:39;15.80;99.60
18291;DHT22;9271;48.590;8.866;2022-09-09T01:41:08;15.70;99.90
18291;DHT22;9271;48.590;8.866;2022-09-09T01:43:34;15.70;99.90
18291;DHT22;9271;48.590;8.866;2022-09-09T01:46:02;15.90;99.90
18291;DHT22;9271;48.590;8.866;2022-09-09T01:48:29;16.00;99.70
18291;DHT22;9271;48.590;8.866;2022-09-09T01:50:56;16.00;99.70
18291;DHT22;9271;48.590;8.866;2022-09-09T01:53:23;16.00;99.50
18291;DHT22;9271;48.590;8.866;2022-09-09T01:55:58;16.00;99.40
18291;DHT22;9271;48.590;8.866;2022-09-09T01:58:34;16.00;99.70
18291;DHT22;9271;48.590;8.866;2022-09-09T02:01:10;15.90;99.40
18291;DHT22;9271;48.590;8.866;2022-09-09T02:03:46;16.00;98.90
18291;DHT22;9271;48.590;8.866;2022-09-09T02:06:24;16.00;99.10
18291;DHT22;9271;48.590;8.866;2022-09-09T02:08:55;16.00;99.10
18291;DHT22;9271;48.590;8.866;2022-09-09T02:11:24;16.00;99.10
18291;DHT22;9271;48.590;8.866;2022-09-09T02:13:55;16.10;98.60
18291;DHT22;9271;48.590;8.866;2022-09-09T02:16:24;16.00;98.70
18291;DHT22;9271;48.590;8.866;2022-09-09T02:18:57;15.90;99.00
18291;DHT22;9271;48.590;8.866;2022-09-09T02:21:27;15.90;98.90
18291;DHT22;9271;48.590;8.866;2022-09-09T02:23:57;15.60;99.70
18291;DHT22;9271;48.590;8.866;2022-09-09T02:26:26;15.60;99.90
18291;DHT22;9271;48.590;8.866;2022-09-09T02:28:56;15.70;99.70
18291;DHT22;9271;48.590;8.866;2022-09-09T02:31:25;15.30;99.90
18291;DHT22;9271;48.590;8.866;2022-09-09T02:33:54;15.40;99.90
18291;DHT22;9271;48.590;8.866;2022-09-09T02:36:24;15.50;99.90
18291;DHT22;9271;48.590;8.866;2022-09-09T02:38:51;15.60;99.90
18291;DHT22;9271;48.590;8.866;2022-09-09T02:41:20;15.50;99.90
18291;DHT22;9271;48.590;8.866;2022-09-09T02:43:48;15.50;99.90
18291;DHT22;9271;48.590;8.866;2022-09-09T02:46:27;15.60;99.90
18291;DHT22;9271;48.590;8.866;2022-09-09T02:49:00;15.70;99.90
18291;DHT22;9271;48.590;8.866;2022-09-09T02:51:34;15.50;99.90
18291;DHT22;9271;48.590;8.866;2022-09-09T02:54:10;15.80;99.70
18291;DHT22;9271;48.590;8.866;2022-09-09T02:56:47;15.80;99.90
18291;DHT22;9271;48.590;8.866;2022-09-09T02:59:16;15.80;99.70
18291;DHT22;9271;48.590;8.866;2022-09-09T03:01:45;15.90;99.40
18291;DHT22;9271;48.590;8.866;2022-09-09T03:04:12;15.60;99.90
18291;DHT22;9271;48.590;8.866;2022-09-09T03:06:39;15.70;99.90
18291;DHT22;9271;48.590;8.866;2022-09-09T03:09:06;15.70;99.90
18291;DHT22;9271;48.590;8.866;2022-09-09T03:11:36;15.60;99.90
18291;DHT22;9271;48.590;8.866;2022-09-09T03:14:04;15.70;99.50
18291;DHT22;9271;48.590;8.866;2022-09-09T03:16:31;15.80;99.70
18291;DHT22;9271;48.590;8.866;2022-09-09T03:19:00;15.80;99.30
18291;DHT22;9271;48.590;8.866;2022-09-09T03:21:27;15.80;99.10
18291;DHT22;9271;48.590;8.866;2022-09-09T03:23:53;15.60;99.50
18291;DHT22;9271;48.590;8.866;2022-09-09T03:26:20;15.40;99.90
18291;DHT22;9271;48.590;8.866;2022-09-09T03:28:48;15.40;99.80
18291;DHT22;9271;48.590;8.866;2022-09-09T03:31:17;15.40;99.90
18291;DHT22;9271;48.590;8.866;2022-09-09T03:33:45;15.50;99.80
18291;DHT22;9271;48.590;8.866;2022-09-09T03:36:13;15.50;99.90
18291;DHT22;9271;48.590;8.866;2022-09-09T03:38:40;15.50;99.80
18291;DHT22;9271;48.590;8.866;2022-09-09T03:41:07;15.30;99.90
18291;DHT22;9271;48.590;8.866;2022-09-09T03:43:34;15.20;99.90
18291;DHT22;9271;48.590;8.866;2022-09-09T03:46:01;15.30;99.90
18291;DHT22;9271;48.590;8.866;2022-09-09T03:48:28;15.30;99.90
18291;DHT22;9271;48.590;8.866;2022-09-09T03:50:55;15.20;99.90
18291;DHT22;9271;48.590;8.866;2022-09-09T03:53:24;15.30;99.90
18291;DHT22;9271;48.590;8.866;2022-09-09T03:55:53;15.30;99.90
18291;DHT22;9271;48.590;8.866;2022-09-09T03:58:22;15.20;99.90
18291;DHT22;9271;48.590;8.866;2022-09-09T04:01:00;15.20;99.90
18291;DHT22;9271;48.590;8.866;2022-09-09T04:03:28;15.30;99.90
18291;DHT22;9271;48.590;8.866;2022-09-09T04:05:56;15.50;99.90
18291;DHT22;9271;48.590;8.866;2022-09-09T04:08:25;15.60;99.90
18291;DHT22;9271;48.590;8.866;2022-09-09T04:10:52;15.70;99.90
18291;DHT22;9271;48.590;8.866;2022-09-09T04:13:20;15.60;99.90
18291;DHT22;9271;48.590;8.866;2022-09-09T04:15:51;15.70;99.90
18291;DHT22;9271;48.590;8.866;2022-09-09T04:18:18;15.70;99.90
18291;DHT22;9271;48.590;8.866;2022-09-09T04:20:46;15.80;99.50
18291;DHT22;9271;48.590;8.866;2022-09-09T04:23:13;15.90;99.30
18291;DHT22;9271;48.590;8.866;2022-09-09T04:25:45;16.00;99.50
18291;DHT22;9271;48.590;8.866;2022-09-09T04:28:12;16.00;99.10
18291;DHT22;9271;48.590;8.866;2022-09-09T04:30:39;16.10;99.10
18291;DHT22;9271;48.590;8.866;2022-09-09T04:33:06;16.20;98.90
18291;DHT22;9271;48.590;8.866;2022-09-09T04:35:33;16.40;98.60
18291;DHT22;9271;48.590;8.866;2022-09-09T04:38:00;16.40;98.70
18291;DHT22;9271;48.590;8.866;2022-09-09T04:40:28;16.40;98.30
18291;DHT22;9271;48.590;8.866;2022-09-09T04:42:57;16.40;98.40
18291;DHT22;9271;48.590;8.866;2022-09-09T04:45:24;16.40;98.50
18291;DHT22;9271;48.590;8.866;2022-09-09T04:47:51;16.00;98.90
18291;DHT22;9271;48.590;8.866;2022-09-09T04:50:18;16.00;99.10
18291;DHT22;9271;48.590;8.866;2022-09-09T04:52:45;16.20;98.70
18291;DHT22;9271;48.590;8.866;2022-09-09T04:55:11;16.20;98.80
18291;DHT22;9271;48.590;8.866;2022-09-09T04:57:39;16.10;99.20
18291;DHT22;9271;48.590;8.866;2022-09-09T05:00:08;16.10;99.50
18291;DHT22;9271;48.590;8.866;2022-09-09T05:02:37;16.30;99.40
18291;DHT22;9271;48.590;8.866;2022-09-09T05:05:04;16.40;98.70
18291;DHT22;9271;48.590;8.866;2022-09-09T05:07:31;16.50;98.40
18291;DHT22;9271;48.590;8.866;2022-09-09T05:09:58;16.60;98.30
18291;DHT22;9271;48.590;8.866;2022-09-09T05:12:25;16.70;98.20
18291;DHT22;9271;48.590;8.866;2022-09-09T05:14:52;16.70;98.00
18291;DHT22;9271;48.590;8.866;2022-09-09T05:17:20;16.40;98.80
18291;DHT22;9271;48.590;8.866;2022-09-09T05:19:47;16.30;98.70
18291;DHT22;9271;48.590;8.866;2022-09-09T05:22:18;16.40;98.70
18291;DHT22;9271;48.590;8.866;2022-09-09T05:24:45;16.60;98.80
18291;DHT22;9271;48.590;8.866;2022-09-09T05:27:12;16.50;98.90
18291;DHT22;9271;48.590;8.866;2022-09-09T05:29:38;16.60;98.70
18291;DHT22;9271;48.590;8.866;2022-09-09T05:32:06;16.80;98.60
18291;DHT22;9271;48.590;8.866;2022-09-09T05:34:35;16.80;98.70
18291;DHT22;9271;48.590;8.866;2022-09-09T05:37:03;16.80;98.70
18291;DHT22;9271;48.590;8.866;2022-09-09T05:39:30;16.90;98.10
18291;DHT22;9271;48.590;8.866;2022-09-09T05:41:58;17.20;97.80
18291;DHT22;9271;48.590;8.866;2022-09-09T05:44:25;17.20;97.70
18291;DHT22;9271;48.590;8.866;2022-09-09T05:46:53;17.20;97.90
18291;DHT22;9271;48.590;8.866;2022-09-09T05:49:20;17.10;98.10
18291;DHT22;9271;48.590;8.866;2022-09-09T05:51:48;17.10;98.10
18291;DHT22;9271;48.590;8.866;2022-09-09T05:54:15;17.20;98.20
18291;DHT22;9271;48.590;8.866;2022-09-09T05:56:42;17.30;97.70
18291;DHT22;9271;48.590;8.866;2022-09-09T05:59:09;17.50;97.50
18291;DHT22;9271;48.590;8.866;2022-09-09T06:01:37;17.40;97.20
18291;DHT22;9271;48.590;8.866;2022-09-09T06:04:05;17.60;97.50
18291;DHT22;9271;48.590;8.866;2022-09-09T06:06:34;17.70;97.40
18291;DHT22;9271;48.590;8.866;2022-09-09T06:09:04;17.90;96.90
18291;DHT22;9271;48.590;8.866;2022-09-09T06:11:32;18.10;96.80
18291;DHT22;9271;48.590;8.866;2022-09-09T06:14:01;18.10;96.50
18291;DHT22;9271;48.590;8.866;2022-09-09T06:16:29;18.00;97.10
18291;DHT22;9271;48.590;8.866;2022-09-09T06:18:58;17.90;97.40
18291;DHT22;9271;48.590;8.866;2022-09-09T06:21:26;17.90;97.50
18291;DHT22;9271;48.590;8.866;2022-09-09T06:23:53;18.20;97.10
18291;DHT22;9271;48.590;8.866;2022-09-09T06:26:23;18.30;96.80
18291;DHT22;9271;48.590;8.866;2022-09-09T06:28:51;18.40;96.90
18291;DHT22;9271;48.590;8.866;2022-09-09T06:31:20;18.40;96.90
18291;DHT22;9271;48.590;8.866;2022-09-09T06:33:47;18.60;96.70
18291;DHT22;9271;48.590;8.866;2022-09-09T06:36:16;18.80;96.20
18291;DHT22;9271;48.590;8.866;2022-09-09T06:38:43;19.00;96.00
18291;DHT22;9271;48.590;8.866;2022-09-09T06:41:12;19.20;95.40
18291;DHT22;9271;48.590;8.866;2022-09-09T06:43:40;19.20;95.10
18291;DHT22;9271;48.590;8.866;2022-09-09T06:46:09;19.20;95.00
18291;DHT22;9271;48.590;8.866;2022-09-09T06:48:38;19.10;95.50
18291;DHT22;9271;48.590;8.866;2022-09-09T06:51:08;19.10;95.20
18291;DHT22;9271;48.590;8.866;2022-09-09T06:53:37;19.00;95.70
18291;DHT22;9271;48.590;8.866;2022-09-09T06:56:18;18.90;95.70
18291;DHT22;9271;48.590;8.866;2022-09-09T06:58:47;19.10;95.20
18291;DHT22;9271;48.590;8.866;2022-09-09T07:01:16;19.40;94.90
18291;DHT22;9271;48.590;8.866;2022-09-09T07:03:46;19.40;95.00
18291;DHT22;9271;48.590;8.866;2022-09-09T07:06:14;19.60;94.40
18291;DHT22;9271;48.590;8.866;2022-09-09T07:08:42;19.70;93.80
18291;DHT22;9271;48.590;8.866;2022-09-09T07:11:09;19.50;94.10
18291;DHT22;9271;48.590;8.866;2022-09-09T07:13:36;19.40;95.10
18291;DHT22;9271;48.590;8.866;2022-09-09T07:16:06;19.50;95.20
18291;DHT22;9271;48.590;8.866;2022-09-09T07:18:33;19.90;94.60
18291;DHT22;9271;48.590;8.866;2022-09-09T07:21:01;20.10;94.70
18291;DHT22;9271;48.590;8.866;2022-09-09T07:23:28;21.00;93.70
18291;DHT22;9271;48.590;8.866;2022-09-09T07:25:55;22.30;91.50
18291;DHT22;9271;48.590;8.866;2022-09-09T07:28:23;22.60;90.70
18291;DHT22;9271;48.590;8.866;2022-09-09T07:30:55;22.10;90.90
18291;DHT22;9271;48.590;8.866;2022-09-09T07:33:23;21.40;92.30
18291;DHT22;9271;48.590;8.866;2022-09-09T07:35:51;21.00;93.30
18291;DHT22;9271;48.590;8.866;2022-09-09T07:38:18;21.20;93.70
18291;DHT22;9271;48.590;8.866;2022-09-09T07:40:45;21.50;93.30
18291;DHT22;9271;48.590;8.866;2022-09-09T07:43:12;22.10;92.20
18291;DHT22;9271;48.590;8.866;2022-09-09T07:45:39;23.10;91.50
18291;DHT22;9271;48.590;8.866;2022-09-09T07:48:08;24.50;88.80
18291;DHT22;9271;48.590;8.866;2022-09-09T07:50:36;25.00;85.60
18291;DHT22;9271;48.590;8.866;2022-09-09T07:53:03;25.70;83.10
18291;DHT22;9271;48.590;8.866;2022-09-09T07:55:31;25.90;80.50
18291;DHT22;9271;48.590;8.866;2022-09-09T07:57:58;26.20;79.90
18291;DHT22;9271;48.590;8.866;2022-09-09T08:00:25;26.00;79.40
18291;DHT22;9271;48.590;8.866;2022-09-09T08:02:52;27.20;77.30
18291;DHT22;9271;48.590;8.866;2022-09-09T08:05:19;28.50;73.70
18291;DHT22;9271;48.590;8.866;2022-09-09T08:07:49;29.60;67.10
18291;DHT22;9271;48.590;8.866;2022-09-09T08:10:15;30.60;63.00
18291;DHT22;9271;48.590;8.866;2022-09-09T08:12:43;31.40;60.30
18291;DHT22;9271;48.590;8.866;2022-09-09T08:15:10;31.00;58.10
18291;DHT22;9271;48.590;8.866;2022-09-09T08:17:37;31.00;57.70
18291;DHT22;9271;48.590;8.866;2022-09-09T08:20:05;30.10;57.40
18291;DHT22;9271;48.590;8.866;2022-09-09T08:22:32;28.30;61.20
18291;DHT22;9271;48.590;8.866;2022-09-09T08:25:00;27.20;66.40
18291;DHT22;9271;48.590;8.866;2022-09-09T08:27:27;27.20;66.40
18291;DHT22;9271;48.590;8.866;2022-09-09T08:29:54;27.60;65.80
18291;DHT22;9271;48.590;8.866;2022-09-09T08:32:22;28.60;63.30
18291;DHT22;9271;48.590;8.866;2022-09-09T08:34:48;29.70;61.80
18291;DHT22;9271;48.590;8.866;2022-09-09T08:37:16;30.80;57.40
18291;DHT22;9271;48.590;8.866;2022-09-09T08:39:44;33.10;54.20
18291;DHT22;9271;48.590;8.866;2022-09-09T08:42:34;34.70;51.10
18291;DHT22;9271;48.590;8.866;2022-09-09T08:45:16;29.80;58.60
18291;DHT22;9271;48.590;8.866;2022-09-09T08:47:54;26.30;65.60
18291;DHT22;9271;48.590;8.866;2022-09-09T08:50:29;23.50;77.80
18291;DHT22;9271;48.590;8.866;2022-09-09T08:53:02;21.50;87.30
18291;DHT22;9271;48.590;8.866;2022-09-09T08:55:37;21.20;94.70
18291;DHT22;9271;48.590;8.866;2022-09-09T08:58:11;21.20;94.40
18291;DHT22;9271;48.590;8.866;2022-09-09T09:00:50;21.80;95.40
18291;DHT22;9271;48.590;8.866;2022-09-09T09:03:24;23.60;93.80
18291;DHT22;9271;48.590;8.866;2022-09-09T09:06:00;26.50;83.70
18291;DHT22;9271;48.590;8.866;2022-09-09T09:08:33;28.20;75.70
18291;DHT22;9271;48.590;8.866;2022-09-09T09:11:04;27.40;73.20
18291;DHT22;9271;48.590;8.866;2022-09-09T09:13:38;26.80;78.30
18291;DHT22;9271;48.590;8.866;2022-09-09T09:16:13;25.90;87.50
18291;DHT22;9271;48.590;8.866;2022-09-09T09:18:41;25.30;85.30
18291;DHT22;9271;48.590;8.866;2022-09-09T09:21:12;26.70;84.10
18291;DHT22;9271;48.590;8.866;2022-09-09T09:23:43;27.90;79.10
18291;DHT22;9271;48.590;8.866;2022-09-09T09:26:11;30.30;77.20
18291;DHT22;9271;48.590;8.866;2022-09-09T09:28:40;33.50;68.00
18291;DHT22;9271;48.590;8.866;2022-09-09T09:31:09;36.30;58.40
18291;DHT22;9271;48.590;8.866;2022-09-09T09:33:42;38.10;52.40
18291;DHT22;9271;48.590;8.866;2022-09-09T09:36:12;37.60;48.90
18291;DHT22;9271;48.590;8.866;2022-09-09T09:38:52;38.10;49.60
18291;DHT22;9271;48.590;8.866;2022-09-09T09:41:30;39.30;43.50
18291;DHT22;9271;48.590;8.866;2022-09-09T09:43:58;36.90;43.40
18291;DHT22;9271;48.590;8.866;2022-09-09T09:46:26;37.00;47.30
18291;DHT22;9271;48.590;8.866;2022-09-09T09:48:57;35.90;45.80
18291;DHT22;9271;48.590;8.866;2022-09-09T09:51:25;34.90;46.00
18291;DHT22;9271;48.590;8.866;2022-09-09T09:53:53;31.60;54.00
18291;DHT22;9271;48.590;8.866;2022-09-09T09:56:27;30.30;58.30
18291;DHT22;9271;48.590;8.866;2022-09-09T09:58:55;30.00;61.30
18291;DHT22;9271;48.590;8.866;2022-09-09T10:01:25;31.40;56.90
18291;DHT22;9271;48.590;8.866;2022-09-09T10:03:53;32.90;49.40
18291;DHT22;9271;48.590;8.866;2022-09-09T10:06:29;31.80;49.70
18291;DHT22;9271;48.590;8.866;2022-09-09T10:08:56;29.70;54.50
18291;DHT22;9271;48.590;8.866;2022-09-09T10:11:33;28.80;56.20
18291;DHT22;9271;48.590;8.866;2022-09-09T10:14:08;29.60;55.50
18291;DHT22;9271;48.590;8.866;2022-09-09T10:16:52;30.00;57.70
18291;DHT22;9271;48.590;8.866;2022-09-09T10:19:30;29.90;55.00
18291;DHT22;9271;48.590;8.866;2022-09-09T10:22:04;28.90;58.50
18291;DHT22;9271;48.590;8.866;2022-09-09T10:24:51;28.20;61.00
18291;DHT22;9271;48.590;8.866;2022-09-09T10:27:29;27.60;62.50
18291;DHT22;9271;48.590;8.866;2022-09-09T10:30:04;27.20;64.70
18291;DHT22;9271;48.590;8.866;2022-09-09T10:32:42;26.30;62.60
18291;DHT22;9271;48.590;8.866;2022-09-09T10:35:37;25.80;66.50
18291;DHT22;9271;48.590;8.866;2022-09-09T10:38:16;26.70;67.80
18291;DHT22;9271;48.590;8.866;2022-09-09T10:41:07;28.50;58.70
18291;DHT22;9271;48.590;8.866;2022-09-09T10:43:56;27.00;58.60
18291;DHT22;9271;48.590;8.866;2022-09-09T10:46:34;26.30;61.60
18291;DHT22;9271;48.590;8.866;2022-09-09T10:49:11;27.40;58.20
18291;DHT22;9271;48.590;8.866;2022-09-09T10:51:45;26.60;59.30
18291;DHT22;9271;48.590;8.866;2022-09-09T10:57:13;22.60;66.20
18291;DHT22;9271;48.590;8.866;2022-09-09T10:59:44;21.70;72.70
18291;DHT22;9271;48.590;8.866;2022-09-09T11:02:16;21.30;74.70
18291;DHT22;9271;48.590;8.866;2022-09-09T11:04:56;20.90;78.30
18291;DHT22;9271;48.590;8.866;2022-09-09T11:07:28;20.20;83.00
18291;DHT22;9271;48.590;8.866;2022-09-09T11:10:01;19.70;84.30
18291;DHT22;9271;48.590;8.866;2022-09-09T11:12:29;19.70;89.40
18291;DHT22;9271;48.590;8.866;2022-09-09T11:14:59;19.60;91.70
18291;DHT22;9271;48.590;8.866;2022-09-09T11:17:35;19.30;92.50
18291;DHT22;9271;48.590;8.866;2022-09-09T11:20:11;19.10;92.80
18291;DHT22;9271;48.590;8.866;2022-09-09T11:22:42;19.20;94.60
18291;DHT22;9271;48.590;8.866;2022-09-09T11:25:15;19.70;93.40
18291;DHT22;9271;48.590;8.866;2022-09-09T11:27:55;20.10;92.60
18291;DHT22;9271;48.590;8.866;2022-09-09T11:30:29;20.10;91.90
18291;DHT22;9271;48.590;8.866;2022-09-09T11:33:31;20.10;91.80
18291;DHT22;9271;48.590;8.866;2022-09-09T11:39:09;20.90;90.70
18291;DHT22;9271;48.590;8.866;2022-09-09T11:41:41;21.30;89.80
18291;DHT22;9271;48.590;8.866;2022-09-09T11:44:11;21.90;89.60
18291;DHT22;9271;48.590;8.866;2022-09-09T11:46:41;22.10;90.00
18291;DHT22;9271;48.590;8.866;2022-09-09T11:49:26;22.80;88.20
18291;DHT22;9271;48.590;8.866;2022-09-09T11:51:54;23.00;85.90
18291;DHT22;9271;48.590;8.866;2022-09-09T11:54:30;24.20;80.00
18291;DHT22;9271;48.590;8.866;2022-09-09T11:56:57;25.00;78.10
18291;DHT22;9271;48.590;8.866;2022-09-09T11:59:26;27.50;76.30
18291;DHT22;9271;48.590;8.866;2022-09-09T12:01:55;31.00;66.30
18291;DHT22;9271;48.590;8.866;2022-09-09T12:04:32;32.10;55.80
18291;DHT22;9271;48.590;8.866;2022-09-09T12:07:03;34.60;51.00
18291;DHT22;9271;48.590;8.866;2022-09-09T12:09:40;32.40;50.60
18291;DHT22;9271;48.590;8.866;2022-09-09T12:12:25;28.90;55.30
18291;DHT22;9271;48.590;8.866;2022-09-09T12:15:01;25.70;62.60
18291;DHT22;9271;48.590;8.866;2022-09-09T12:17:29;24.40;68.50
18291;DHT22;9271;48.590;8.866;2022-09-09T12:20:08;23.10;70.70
18291;DHT22;9271;48.590;8.866;2022-09-09T12:22:49;21.70;74.20
18291;DHT22;9271;48.590;8.866;2022-09-09T12:25:23;21.80;75.90
18291;DHT22;9271;48.590;8.866;2022-09-09T12:28:02;22.10;76.60
18291;DHT22;9271;48.590;8.866;2022-09-09T12:30:34;22.70;75.80
18291;DHT22;9271;48.590;8.866;2022-09-09T12:33:10;22.60;74.40
18291;DHT22;9271;48.590;8.866;2022-09-09T12:35:38;22.70;69.20
18291;DHT22;9271;48.590;8.866;2022-09-09T12:38:12;24.30;65.80
18291;DHT22;9271;48.590;8.866;2022-09-09T12:40:40;24.90;62.20
18291;DHT22;9271;48.590;8.866;2022-09-09T12:43:17;23.50;64.20
18291;DHT22;9271;48.590;8.866;2022-09-09T12:45:45;22.90;68.30
18291;DHT22;9271;48.590;8.866;2022-09-09T12:48:12;23.90;65.60
18291;DHT22;9271;48.590;8.866;2022-09-09T12:50:45;25.80;61.40
18291;DHT22;9271;48.590;8.866;2022-09-09T12:53:20;28.00;58.00
18291;DHT22;9271;48.590;8.866;2022-09-09T12:55:50;29.20;53.00
18291;DHT22;9271;48.590;8.866;2022-09-09T12:58:18;28.50;55.40
18291;DHT22;9271;48.590;8.866;2022-09-09T13:00:49;28.30;54.00
18291;DHT22;9271;48.590;8.866;2022-09-09T13:03:19;27.60;54.10
18291;DHT22;9271;48.590;8.866;2022-09-09T13:05:47;27.70;54.70
18291;DHT22;9271;48.590;8.866;2022-09-09T13:08:16;27.40;55.30
18291;DHT22;9271;48.590;8.866;2022-09-09T13:10:47;25.20;57.30
18291;DHT22;9271;48.590;8.866;2022-09-09T13:13:21;23.50;62.30
18291;DHT22;9271;48.590;8.866;2022-09-09T13:15:50;22.70;64.10
18291;DHT22;9271;48.590;8.866;2022-09-09T13:18:20;23.10;65.00
18291;DHT22;9271;48.590;8.866;2022-09-09T13:20:48;25.30;59.40
18291;DHT22;9271;48.590;8.866;2022-09-09T13:23:18;27.80;54.30
18291;DHT22;9271;48.590;8.866;2022-09-09T13:25:54;27.20;53.50
18291;DHT22;9271;48.590;8.866;2022-09-09T13:28:22;25.70;56.80
18291;DHT22;9271;48.590;8.866;2022-09-09T13:30:56;24.80;59.20
18291;DHT22;9271;48.590;8.866;2022-09-09T13:33:30;25.20;58.70
18291;DHT22;9271;48.590;8.866;2022-09-09T13:36:00;25.30;56.00
18291;DHT22;9271;48.590;8.866;2022-09-09T13:38:32;25.70;54.80
18291;DHT22;9271;48.590;8.866;2022-09-09T13:41:01;26.50;53.40
18291;DHT22;9271;48.590;8.866;2022-09-09T13:43:30;27.20;51.50
18291;DHT22;9271;48.590;8.866;2022-09-09T13:45:59;26.40;52.50
18291;DHT22;9271;48.590;8.866;2022-09-09T13:48:27;27.20;49.70
18291;DHT22;9271;48.590;8.866;2022-09-09T13:51:00;26.40;51.20
18291;DHT22;9271;48.590;8.866;2022-09-09T13:53:29;26.40;52.50
18291;DHT22;9271;48.590;8.866;2022-09-09T13:55:56;26.40;51.00
18291;DHT22;9271;48.590;8.866;2022-09-09T13:58:24;26.40;49.90
18291;DHT22;9271;48.590;8.866;2022-09-09T14:00:52;26.20;49.40
18291;DHT22;9271;48.590;8.866;2022-09-09T14:03:19;24.90;51.00
18291;DHT22;9271;48.590;8.866;2022-09-09T14:05:46;24.00;53.60
18291;DHT22;9271;48.590;8.866;2022-09-09T14:08:20;24.70;52.50
18291;DHT22;9271;48.590;8.866;2022-09-09T14:10:48;25.60;51.00
18291;DHT22;9271;48.590;8.866;2022-09-09T14:13:15;25.80;50.80
18291;DHT22;9271;48.590;8.866;2022-09-09T14:15:42;25.80;50.90
18291;DHT22;9271;48.590;8.866;2022-09-09T14:18:11;26.60;49.20
18291;DHT22;9271;48.590;8.866;2022-09-09T14:20:39;26.20;49.40
18291;DHT22;9271;48.590;8.866;2022-09-09T14:23:05;26.20;49.30
18291;DHT22;9271;48.590;8.866;2022-09-09T14:25:32;26.70;49.20
18291;DHT22;9271;48.590;8.866;2022-09-09T14:28:00;26.70;47.90
18291;DHT22;9271;48.590;8.866;2022-09-09T14:30:27;26.70;48.30
18291;DHT22;9271;48.590;8.866;2022-09-09T14:32:54;26.10;48.80
18291;DHT22;9271;48.590;8.866;2022-09-09T14:35:21;25.80;50.20
18291;DHT22;9271;48.590;8.866;2022-09-09T14:37:47;25.80;50.20
18291;DHT22;9271;48.590;8.866;2022-09-09T14:40:14;26.10;50.80
18291;DHT22;9271;48.590;8.866;2022-09-09T14:42:42;26.00;52.60
18291;DHT22;9271;48.590;8.866;2022-09-09T14:45:11;25.70;52.50
18291;DHT22;9271;48.590;8.866;2022-09-09T14:47:38;26.40;51.50
18291;DHT22;9271;48.590;8.866;2022-09-09T14:50:05;26.10;53.60
18291;DHT22;9271;48.590;8.866;2022-09-09T14:52:33;25.70;52.30
18291;DHT22;9271;48.590;8.866;2022-09-09T14:55:00;25.40;53.60
18291;DHT22;9271;48.590;8.866;2022-09-09T14:57:27;26.00;54.00
18291;DHT22;9271;48.590;8.866;2022-09-09T14:59:53;26.80;49.40
18291;DHT22;9271;48.590;8.866;2022-09-09T15:02:21;26.60;51.00
18291;DHT22;9271;48.590;8.866;2022-09-09T15:04:48;26.40;49.80
18291;DHT22;9271;48.590;8.866;2022-09-09T15:07:15;25.10;51.80
18291;DHT22;9271;48.590;8.866;2022-09-09T15:09:42;25.00;51.70
18291;DHT22;9271;48.590;8.866;2022-09-09T15:12:09;25.20;50.80
18291;DHT22;9271;48.590;8.866;2022-09-09T15:14:35;25.40;49.50
18291;DHT22;9271;48.590;8.866;2022-09-09T15:17:03;25.50;50.50
18291;DHT22;9271;48.590;8.866;2022-09-09T15:19:31;25.80;49.60
18291;DHT22;9271;48.590;8.866;2022-09-09T15:21:58;25.30;50.80
18291;DHT22;9271;48.590;8.866;2022-09-09T15:24:25;24.50;52.30
18291;DHT22;9271;48.590;8.866;2022-09-09T15:26:52;24.30;53.60
18291;DHT22;9271;48.590;8.866;2022-09-09T15:29:19;24.20;52.70
18291;DHT22;9271;48.590;8.866;2022-09-09T15:31:45;23.00;55.00
18291;DHT22;9271;48.590;8.866;2022-09-09T15:34:12;22.40;56.40
18291;DHT22;9271;48.590;8.866;2022-09-09T15:36:42;22.40;57.70
18291;DHT22;9271;48.590;8.866;2022-09-09T15:39:11;22.50;57.00
18291;DHT22;9271;48.590;8.866;2022-09-09T15:41:38;21.90;58.70
18291;DHT22;9271;48.590;8.866;2022-09-09T15:44:05;21.90;59.30
18291;DHT22;9271;48.590;8.866;2022-09-09T15:46:33;21.60;58.80
18291;DHT22;9271;48.590;8.866;2022-09-09T15:49:07;21.40;57.00
18291;DHT22;9271;48.590;8.866;2022-09-09T15:51:35;20.90;58.10
18291;DHT22;9271;48.590;8.866;2022-09-09T15:54:04;21.00;59.00
18291;DHT22;9271;48.590;8.866;2022-09-09T15:56:31;21.40;59.00
18291;DHT22;9271;48.590;8.866;2022-09-09T15:59:00;21.90;58.40
18291;DHT22;9271;48.590;8.866;2022-09-09T16:01:28;21.80;58.80
18291;DHT22;9271;48.590;8.866;2022-09-09T16:03:56;22.00;59.10
18291;DHT22;9271;48.590;8.866;2022-09-09T16:06:24;21.80;59.50
18291;DHT22;9271;48.590;8.866;2022-09-09T16:08:54;21.60;59.70
18291;DHT22;9271;48.590;8.866;2022-09-09T16:11:24;21.60;60.10